createdAt,value
2022-10-13T00:00:58.642Z,100.00
2022-10-13T00:03:25.399Z,100.00
2022-10-13T00:05:52.278Z,100.00
2022-10-13T00:08:21.511Z,100.00
2022-10-13T00:10:50.081Z,100.00
2022-10-13T00:13:17.029Z,100.00
2022-10-13T00:15:45.414Z,100.00
2022-10-13T00:18:12.342Z,100.00
2022-10-13T00:20:48.797Z,100.00
2022-10-13T00:23:16.474Z,100.00
2022-10-13T00:25:44.910Z,100.00
2022-10-13T00:28:11.871Z,100.00
2022-10-13T00:30:38.989Z,100.00
2022-10-13T00:33:05.610Z,100.00
2022-10-13T00:35:32.611Z,100.00
2022-10-13T00:37:59.248Z,100.00
2022-10-13T00:40:25.714Z,100.00
2022-10-13T00:42:52.158Z,100.00
2022-10-13T00:45:27.258Z,100.00
2022-10-13T00:47:56.780Z,100.00
2022-10-13T00:50:28.913Z,100.00
2022-10-13T00:52:57.760Z,100.00
2022-10-13T00:55:29.531Z,100.00
2022-10-13T00:58:02.759Z,100.00
2022-10-13T01:00:32.920Z,100.00
2022-10-13T01:02:59.447Z,100.00
2022-10-13T01:09:56.893Z,100.00
2022-10-13T01:12:37.597Z,100.00
2022-10-13T01:15:16.218Z,100.00
2022-10-13T01:17:56.217Z,100.00
2022-10-13T01:20:32.632Z,100.00
2022-10-13T01:23:20.881Z,100.00
2022-10-13T01:26:27.737Z,100.00
2022-10-13T01:29:22.256Z,100.00
2022-10-13T01:32:11.679Z,100.00
2022-10-13T01:34:53.950Z,100.00
2022-10-13T01:37:30.100Z,100.00
2022-10-13T01:40:26.424Z,100.00
2022-10-13T01:43:08.007Z,100.00
2022-10-13T01:45:48.776Z,100.00
2022-10-13T01:48:17.883Z,100.00
2022-10-13T01:50:45.011Z,100.00
2022-10-13T01:53:13.678Z,100.00
2022-10-13T01:55:53.480Z,100.00
2022-10-13T01:58:20.835Z,100.00
2022-10-13T02:01:01.323Z,100.00
2022-10-13T02:03:38.536Z,100.00
2022-10-13T02:06:16.718Z,100.00
2022-10-13T02:08:45.889Z,100.00
2022-10-13T02:11:18.397Z,100.00
2022-10-13T02:13:57.706Z,100.00
2022-10-13T02:16:25.336Z,100.00
2022-10-13T02:18:52.708Z,100.00
2022-10-13T02:21:19.407Z,100.00
2022-10-13T02:23:45.951Z,100.00
2022-10-13T02:26:13.376Z,100.00
2022-10-13T02:28:40.692Z,100.00
2022-10-13T02:31:10.537Z,100.00
2022-10-13T02:33:37.209Z,100.00
2022-10-13T02:36:03.794Z,100.00
2022-10-13T02:38:30.886Z,100.00
2022-10-13T02:40:57.479Z,100.00
2022-10-13T02:43:23.848Z,100.00
2022-10-13T02:45:50.212Z,100.00
2022-10-13T02:48:16.608Z,100.00
2022-10-13T02:50:43.032Z,100.00
2022-10-13T02:53:09.428Z,100.00
2022-10-13T02:55:35.827Z,100.00
2022-10-13T02:58:02.198Z,100.00
2022-10-13T03:00:28.606Z,100.00
2022-10-13T03:02:54.997Z,100.00
2022-10-13T03:05:21.565Z,100.00
2022-10-13T03:07:47.986Z,100.00
2022-10-13T03:10:14.427Z,100.00
2022-10-13T03:12:40.820Z,100.00
2022-10-13T03:15:08.001Z,100.00
2022-10-13T03:17:34.422Z,100.00
2022-10-13T03:20:00.828Z,100.00
2022-10-13T03:22:27.173Z,100.00
2022-10-13T03:24:53.523Z,100.00
2022-10-13T03:27:20.777Z,100.00
2022-10-13T03:29:47.165Z,100.00
2022-10-13T03:32:13.617Z,100.00
2022-10-13T03:34:39.987Z,100.00
2022-10-13T03:37:06.474Z,100.00
2022-10-13T03:39:32.889Z,100.00
2022-10-13T03:41:59.343Z,100.00
2022-10-13T03:44:25.803Z,100.00
2022-10-13T03:46:52.893Z,100.00
2022-10-13T03:49:19.269Z,100.00
2022-10-13T03:51:45.879Z,100.00
2022-10-13T03:54:12.870Z,100.00
2022-10-13T03:56:40.330Z,100.00
2022-10-13T03:59:07.189Z,100.00
2022-10-13T04:01:34.378Z,100.00
2022-10-13T04:04:02.823Z,100.00
2022-10-13T04:06:30.400Z,100.00
2022-10-13T04:08:57.392Z,100.00
2022-10-13T04:11:24.012Z,100.00
2022-10-13T04:13:50.440Z,100.00
2022-10-13T04:16:20.291Z,100.00
2022-10-13T04:18:56.284Z,100.00
2022-10-13T04:21:23.650Z,100.00
2022-10-13T04:23:50.503Z,100.00
2022-10-13T04:26:19.382Z,100.00
2022-10-13T04:28:54.327Z,100.00
2022-10-13T04:31:22.174Z,100.00
2022-10-13T04:33:49.327Z,100.00
2022-10-13T04:36:16.615Z,100.00
2022-10-13T04:38:43.770Z,100.00
2022-10-13T04:41:11.469Z,100.00
2022-10-13T04:43:37.873Z,100.00
2022-10-13T04:46:09.755Z,100.00
2022-10-13T04:48:36.208Z,100.00
2022-10-13T04:51:05.447Z,100.00
2022-10-13T04:53:32.507Z,100.00
2022-10-13T04:56:05.222Z,100.00
2022-10-13T04:58:32.741Z,100.00
2022-10-13T05:01:01.800Z,100.00
2022-10-13T05:03:29.164Z,100.00
2022-10-13T05:05:55.587Z,100.00
2022-10-13T05:08:22.188Z,100.00
2022-10-13T05:10:58.492Z,100.00
2022-10-13T05:13:26.277Z,100.00
2022-10-13T05:15:52.780Z,100.00
2022-10-13T05:18:19.383Z,100.00
2022-10-13T05:20:46.844Z,100.00
2022-10-13T05:23:14.455Z,100.00
2022-10-13T05:25:41.053Z,100.00
2022-10-13T05:28:08.566Z,100.00
2022-10-13T05:30:35.559Z,100.00
2022-10-13T05:33:01.978Z,100.00
2022-10-13T05:35:28.634Z,100.00
2022-10-13T05:37:55.055Z,100.00
2022-10-13T05:40:21.472Z,100.00
2022-10-13T05:42:51.036Z,100.00
2022-10-13T05:45:19.533Z,100.00
2022-10-13T05:47:45.843Z,100.00
2022-10-13T05:50:12.302Z,100.00
2022-10-13T05:52:38.884Z,100.00
2022-10-13T05:55:08.476Z,100.00
2022-10-13T05:57:38.297Z,100.00
2022-10-13T06:00:10.328Z,100.00
2022-10-13T06:02:44.706Z,100.00
2022-10-13T06:05:14.726Z,100.00
2022-10-13T06:07:42.615Z,100.00
2022-10-13T06:10:10.429Z,100.00
2022-10-13T06:12:37.215Z,100.00
2022-10-13T06:15:04.087Z,100.00
2022-10-13T06:17:30.606Z,100.00
2022-10-13T06:19:57.030Z,100.00
2022-10-13T06:22:23.483Z,100.00
2022-10-13T06:24:49.902Z,100.00
2022-10-13T06:27:16.390Z,100.00
2022-10-13T06:29:42.795Z,100.00
2022-10-13T06:32:09.374Z,100.00
2022-10-13T06:34:35.786Z,100.00
2022-10-13T06:37:02.234Z,100.00
2022-10-13T06:39:28.675Z,100.00
2022-10-13T06:41:55.402Z,100.00
2022-10-13T06:44:21.879Z,100.00
2022-10-13T06:46:48.309Z,100.00
2022-10-13T06:49:14.801Z,100.00
2022-10-13T06:51:41.394Z,100.00
2022-10-13T06:54:07.810Z,100.00
2022-10-13T06:56:34.254Z,100.00
2022-10-13T06:59:00.676Z,100.00
2022-10-13T07:01:27.210Z,100.00
2022-10-13T07:03:53.636Z,100.00
2022-10-13T07:06:20.121Z,100.00
2022-10-13T07:08:46.689Z,100.00
2022-10-13T07:11:16.186Z,100.00
2022-10-13T07:13:46.396Z,100.00
2022-10-13T07:16:14.690Z,100.00
2022-10-13T07:18:41.164Z,100.00
2022-10-13T07:21:07.673Z,100.00
2022-10-13T07:23:36.711Z,100.00
2022-10-13T07:26:07.806Z,100.00
2022-10-13T07:28:34.373Z,100.00
2022-10-13T07:31:00.873Z,100.00
2022-10-13T07:33:27.340Z,100.00
2022-10-13T07:35:53.729Z,100.00
2022-10-13T07:38:20.333Z,100.00
2022-10-13T07:40:46.765Z,100.00
2022-10-13T07:43:13.341Z,100.00
2022-10-13T07:45:39.810Z,100.00
2022-10-13T07:48:06.537Z,100.00
2022-10-13T07:50:32.992Z,100.00
2022-10-13T07:52:59.490Z,100.00
2022-10-13T07:55:26.036Z,100.00
2022-10-13T07:57:52.482Z,100.00
2022-10-13T08:00:19.029Z,100.00
2022-10-13T08:02:48.927Z,100.00
2022-10-13T08:05:15.391Z,100.00
2022-10-13T08:07:41.992Z,100.00
2022-10-13T08:10:09.034Z,100.00
2022-10-13T08:12:36.769Z,100.00
2022-10-13T08:15:06.249Z,100.00
2022-10-13T08:17:33.690Z,100.00
2022-10-13T08:20:00.156Z,100.00
2022-10-13T08:22:28.368Z,100.00
2022-10-13T08:24:55.997Z,100.00
2022-10-13T08:27:37.072Z,100.00
2022-10-13T08:30:11.632Z,100.00
2022-10-13T08:32:38.057Z,100.00
2022-10-13T08:35:04.822Z,100.00
2022-10-13T08:37:31.238Z,100.00
2022-10-13T08:39:57.767Z,100.00
2022-10-13T08:42:24.290Z,100.00
2022-10-13T08:45:36.387Z,100.00
2022-10-13T08:47:48.848Z,100.00
2022-10-13T08:50:20.137Z,100.00
2022-10-13T08:52:52.631Z,100.00
2022-10-13T08:55:34.380Z,100.00
2022-10-13T08:58:02.771Z,100.00
2022-10-13T09:00:29.908Z,100.00
2022-10-13T09:03:18.810Z,100.00
2022-10-13T09:06:11.220Z,100.00
2022-10-13T09:08:46.937Z,100.00
2022-10-13T09:11:13.594Z,100.00
2022-10-13T09:13:40.338Z,100.00
2022-10-13T09:16:07.540Z,100.00
2022-10-13T09:18:34.678Z,100.00
2022-10-13T09:21:18.728Z,100.00
2022-10-13T09:23:45.618Z,100.00
2022-10-13T09:26:20.358Z,100.00
2022-10-13T09:28:47.151Z,100.00
2022-10-13T09:31:18.438Z,99.97
2022-10-13T09:33:45.765Z,100.00
2022-10-13T09:36:14.589Z,99.86
2022-10-13T09:38:44.954Z,98.42
2022-10-13T09:41:19.670Z,98.49
2022-10-13T09:43:45.999Z,99.50
2022-10-13T09:46:25.851Z,99.19
2022-10-13T09:48:55.268Z,98.50
2022-10-13T09:51:33.854Z,97.54
2022-10-13T09:54:00.636Z,96.94
2022-10-13T09:56:35.733Z,97.23
2022-10-13T09:59:31.157Z,97.67
2022-10-13T10:02:00.441Z,97.39
2022-10-13T10:04:35.421Z,96.83
2022-10-13T10:07:11.161Z,96.09
2022-10-13T10:10:01.755Z,96.11
2022-10-13T10:12:30.865Z,96.86
2022-10-13T10:14:57.507Z,98.17
2022-10-13T10:18:03.004Z,97.44
2022-10-13T10:20:45.357Z,97.22
2022-10-13T10:23:30.330Z,97.65
2022-10-13T10:26:06.010Z,97.82
2022-10-13T10:28:50.539Z,96.88
2022-10-13T10:31:24.234Z,96.22
2022-10-13T10:34:18.615Z,96.35
2022-10-13T10:37:00.831Z,96.30
2022-10-13T10:39:38.390Z,95.44
2022-10-13T10:42:42.126Z,94.36
2022-10-13T10:45:22.608Z,92.55
2022-10-13T10:47:53.968Z,91.92
2022-10-13T10:50:21.992Z,92.48
2022-10-13T10:53:06.247Z,92.96
2022-10-13T10:55:43.826Z,93.38
2022-10-13T10:58:16.121Z,93.33
2022-10-13T11:00:53.232Z,91.77
2022-10-13T11:03:34.347Z,90.44
2022-10-13T11:06:21.641Z,90.68
2022-10-13T11:08:49.465Z,89.50
2022-10-13T11:11:37.433Z,89.80
2022-10-13T11:14:07.359Z,88.64
2022-10-13T11:16:37.780Z,88.24
2022-10-13T11:19:08.408Z,87.52
2022-10-13T11:21:52.930Z,88.11
2022-10-13T11:24:39.345Z,86.89
2022-10-13T11:27:09.189Z,87.64
2022-10-13T11:29:45.648Z,87.75
2022-10-13T11:32:36.208Z,87.06
2022-10-13T11:35:05.707Z,86.19
2022-10-13T11:38:05.765Z,84.84
2022-10-13T11:40:39.931Z,85.10
2022-10-13T11:43:47.815Z,85.49
2022-10-13T11:46:14.312Z,85.61
2022-10-13T11:48:52.597Z,84.79
2022-10-13T11:51:47.112Z,84.28
2022-10-13T11:54:24.219Z,84.80
2022-10-13T11:56:53.245Z,84.02
2022-10-13T11:59:39.540Z,84.47
2022-10-13T12:02:19.127Z,84.23
2022-10-13T12:05:19.260Z,83.04
2022-10-13T12:07:47.530Z,84.13
2022-10-13T12:10:19.560Z,84.68
2022-10-13T12:12:48.886Z,84.16
2022-10-13T12:15:36.908Z,85.10
2022-10-13T12:18:21.650Z,84.14
2022-10-13T12:20:56.264Z,84.00
2022-10-13T12:23:22.684Z,84.18
2022-10-13T12:25:56.516Z,83.87
2022-10-13T12:28:23.912Z,84.00
2022-10-13T12:30:56.149Z,83.77
2022-10-13T12:33:32.842Z,83.15
2022-10-13T12:36:18.734Z,83.53
2022-10-13T12:38:54.093Z,82.57
2022-10-13T12:41:26.292Z,83.07
2022-10-13T12:43:53.796Z,83.23
2022-10-13T12:46:43.161Z,83.71
2022-10-13T12:49:16.021Z,83.16
2022-10-13T12:51:45.844Z,83.24
2022-10-13T12:54:20.761Z,82.70
2022-10-13T12:56:47.364Z,82.04
2022-10-13T12:59:19.109Z,82.39
2022-10-13T13:01:52.080Z,82.43
2022-10-13T13:04:21.603Z,82.11
2022-10-13T13:07:02.765Z,81.14
2022-10-13T13:09:34.342Z,82.07
2022-10-13T13:12:25.782Z,82.18
2022-10-13T13:14:55.053Z,81.53
2022-10-13T13:17:53.381Z,81.44
2022-10-13T13:20:30.988Z,81.54
2022-10-13T13:22:57.452Z,81.87
2022-10-13T13:25:24.503Z,82.00
2022-10-13T13:27:51.898Z,81.34
2022-10-13T13:30:21.058Z,80.92
2022-10-13T13:32:47.656Z,80.67
2022-10-13T13:35:14.241Z,81.04
2022-10-13T13:37:47.853Z,80.44
2022-10-13T13:40:17.313Z,80.46
2022-10-13T13:42:43.871Z,80.33
2022-10-13T13:45:14.962Z,80.91
2022-10-13T13:47:41.389Z,81.54
2022-10-13T13:50:18.818Z,81.45
2022-10-13T13:52:45.252Z,81.17
2022-10-13T13:55:11.835Z,80.93
2022-10-13T13:57:38.247Z,80.88
2022-10-13T14:00:06.029Z,80.53
2022-10-13T14:02:32.496Z,81.20
2022-10-13T14:04:58.897Z,81.17
2022-10-13T14:07:25.451Z,81.10
2022-10-13T14:09:53.169Z,81.73
2022-10-13T14:12:20.457Z,81.68
2022-10-13T14:14:47.057Z,81.94
2022-10-13T14:17:13.474Z,82.56
2022-10-13T14:19:41.778Z,82.78
2022-10-13T14:22:09.657Z,82.40
2022-10-13T14:24:36.191Z,81.77
2022-10-13T14:27:02.642Z,81.94
2022-10-13T14:29:29.049Z,82.18
2022-10-13T14:31:55.455Z,82.32
2022-10-13T14:34:21.936Z,81.81
2022-10-13T14:36:48.371Z,81.70
2022-10-13T14:39:14.757Z,82.23
2022-10-13T14:41:41.214Z,82.31
2022-10-13T14:44:07.633Z,80.80
2022-10-13T14:46:34.048Z,81.11
2022-10-13T14:49:00.528Z,82.16
2022-10-13T14:51:26.955Z,82.57
2022-10-13T14:53:53.330Z,82.03
2022-10-13T14:56:22.640Z,82.91
2022-10-13T14:58:51.041Z,83.44
2022-10-13T15:01:18.346Z,84.05
2022-10-13T15:03:45.050Z,84.23
2022-10-13T15:06:17.052Z,84.17
2022-10-13T15:08:44.247Z,84.32
2022-10-13T15:11:14.891Z,85.16
2022-10-13T15:13:41.795Z,85.41
2022-10-13T15:16:15.828Z,86.29
2022-10-13T15:18:42.688Z,85.83
2022-10-13T15:21:09.165Z,86.72
2022-10-13T15:23:35.562Z,86.69
2022-10-13T15:26:03.334Z,86.73
2022-10-13T15:28:41.323Z,87.02
2022-10-13T15:31:08.174Z,87.41
2022-10-13T15:33:35.312Z,87.67
2022-10-13T15:36:01.731Z,87.54
2022-10-13T15:38:28.109Z,87.01
2022-10-13T15:40:59.644Z,87.09
2022-10-13T15:43:26.598Z,87.97
2022-10-13T15:45:55.736Z,87.49
2022-10-13T15:48:22.763Z,88.60
2022-10-13T15:50:49.260Z,88.62
2022-10-13T15:53:15.809Z,89.33
2022-10-13T15:55:42.259Z,88.28
2022-10-13T15:58:13.435Z,88.49
2022-10-13T16:00:40.679Z,88.40
2022-10-13T16:03:07.393Z,88.97
2022-10-13T16:05:34.659Z,89.59
2022-10-13T16:08:03.536Z,89.34
2022-10-13T16:10:29.942Z,90.07
2022-10-13T16:12:56.569Z,89.95
2022-10-13T16:15:22.992Z,90.30
2022-10-13T16:17:51.754Z,90.85
2022-10-13T16:20:18.172Z,91.73
2022-10-13T16:22:44.635Z,92.32
2022-10-13T16:25:11.190Z,92.73
2022-10-13T16:27:40.493Z,92.42
2022-10-13T16:30:10.763Z,92.47
2022-10-13T16:32:39.028Z,92.99
2022-10-13T16:35:05.931Z,92.13
2022-10-13T16:37:32.486Z,92.41
2022-10-13T16:39:58.990Z,92.21
2022-10-13T16:42:25.478Z,91.73
2022-10-13T16:44:51.899Z,92.16
2022-10-13T16:47:18.880Z,92.21
2022-10-13T16:49:45.489Z,93.24
2022-10-13T16:52:12.269Z,93.23
2022-10-13T16:54:38.740Z,92.27
2022-10-13T16:57:05.126Z,93.54
2022-10-13T16:59:31.668Z,93.42
2022-10-13T17:01:59.261Z,94.47
2022-10-13T17:04:25.816Z,94.72
2022-10-13T17:06:52.215Z,94.27
2022-10-13T17:09:18.654Z,93.06
2022-10-13T17:11:45.125Z,93.27
2022-10-13T17:14:11.685Z,93.42
2022-10-13T17:16:38.113Z,94.26
2022-10-13T17:19:04.989Z,93.81
2022-10-13T17:21:31.441Z,93.30
2022-10-13T17:23:57.966Z,93.54
2022-10-13T17:26:24.772Z,93.47
2022-10-13T17:28:51.303Z,93.78
2022-10-13T17:31:20.621Z,93.12
2022-10-13T17:33:47.669Z,93.49
2022-10-13T17:36:19.901Z,93.88
2022-10-13T17:38:48.183Z,93.23
2022-10-13T17:41:15.196Z,93.36
2022-10-13T17:43:41.897Z,94.12
2022-10-13T17:46:35.591Z,94.45
2022-10-13T17:49:03.265Z,94.84
2022-10-13T17:51:29.832Z,93.94
2022-10-13T17:53:58.648Z,93.49
2022-10-13T17:56:25.586Z,93.97
2022-10-13T17:58:52.232Z,93.86
2022-10-13T18:01:25.685Z,94.37
2022-10-13T18:03:57.130Z,93.45
2022-10-13T18:06:24.251Z,93.88
2022-10-13T18:08:51.328Z,94.31
2022-10-13T18:11:20.431Z,93.46
2022-10-13T18:13:47.231Z,94.26
2022-10-13T18:16:17.517Z,94.86
2022-10-13T18:18:45.045Z,95.21
2022-10-13T18:21:13.652Z,96.34
2022-10-13T18:23:40.641Z,95.73
2022-10-13T18:26:13.259Z,94.98
2022-10-13T18:28:43.203Z,95.86
2022-10-13T18:31:12.315Z,96.37
2022-10-13T18:33:39.325Z,95.15
2022-10-13T18:36:30.612Z,96.60
2022-10-13T18:39:02.869Z,96.51
2022-10-13T18:41:29.611Z,96.12
2022-10-13T18:43:56.367Z,96.70
2022-10-13T18:46:23.420Z,97.06
2022-10-13T18:48:50.338Z,97.44
2022-10-13T18:51:19.155Z,96.11
2022-10-13T18:53:47.699Z,96.71
2022-10-13T18:56:26.026Z,96.89
2022-10-13T18:58:59.319Z,96.84
2022-10-13T19:01:29.506Z,97.72
2022-10-13T19:03:56.470Z,96.97
2022-10-13T19:06:27.375Z,97.68
2022-10-13T19:09:01.231Z,96.77
2022-10-13T19:11:29.236Z,96.19
2022-10-13T19:13:56.265Z,95.30
2022-10-13T19:16:24.301Z,94.98
2022-10-13T19:18:51.271Z,95.92
2022-10-13T19:21:19.135Z,96.04
2022-10-13T19:23:45.690Z,96.19
2022-10-13T19:26:20.933Z,96.37
2022-10-13T19:28:47.690Z,95.75
2022-10-13T19:31:20.497Z,96.67
2022-10-13T19:33:48.172Z,97.80
2022-10-13T19:36:25.898Z,97.00
2022-10-13T19:38:52.623Z,97.28
2022-10-13T19:41:19.260Z,96.74
2022-10-13T19:43:45.720Z,96.98
2022-10-13T19:46:12.534Z,96.96
2022-10-13T19:48:38.975Z,97.09
2022-10-13T19:51:07.208Z,96.76
2022-10-13T19:53:35.262Z,96.60
2022-10-13T19:56:01.723Z,96.95
2022-10-13T19:58:28.325Z,97.73
2022-10-13T20:00:54.819Z,97.91
2022-10-13T20:03:21.304Z,97.43
2022-10-13T20:05:47.702Z,97.49
2022-10-13T20:08:14.152Z,96.53
2022-10-13T20:10:42.551Z,96.97
2022-10-13T20:13:09.233Z,98.54
2022-10-13T20:15:40.639Z,97.76
2022-10-13T20:18:08.445Z,97.40
2022-10-13T20:20:36.195Z,98.99
2022-10-13T20:23:02.648Z,99.94
2022-10-13T20:25:29.046Z,98.78
2022-10-13T20:27:55.494Z,98.92
2022-10-13T20:30:22.078Z,98.18
2022-10-13T20:32:48.486Z,98.90
2022-10-13T20:35:14.914Z,98.78
2022-10-13T20:37:41.371Z,98.87
2022-10-13T20:40:08.283Z,98.58
2022-10-13T20:42:34.727Z,99.01
2022-10-13T20:45:01.200Z,100.00
2022-10-13T20:47:27.631Z,100.00
2022-10-13T20:49:54.048Z,100.00
2022-10-13T20:52:20.438Z,100.00
2022-10-13T20:54:46.883Z,100.00
2022-10-13T20:57:13.320Z,100.00
2022-10-13T20:59:39.753Z,100.00
2022-10-13T21:02:06.534Z,100.00
2022-10-13T21:04:33.050Z,100.00
2022-10-13T21:06:59.514Z,99.46
2022-10-13T21:09:25.989Z,100.00
2022-10-13T21:11:52.392Z,100.00
2022-10-13T21:14:18.796Z,100.00
2022-10-13T21:16:45.182Z,100.00
2022-10-13T21:19:11.692Z,100.00
2022-10-13T21:21:38.218Z,100.00
2022-10-13T21:24:06.939Z,100.00
2022-10-13T21:26:34.653Z,99.90
2022-10-13T21:29:01.533Z,100.00
2022-10-13T21:31:28.998Z,100.00
2022-10-13T21:33:55.915Z,100.00
2022-10-13T21:36:23.832Z,100.00
2022-10-13T21:38:53.576Z,100.00
2022-10-13T21:41:20.380Z,100.00
2022-10-13T21:43:47.106Z,100.00
2022-10-13T21:46:15.017Z,100.00
2022-10-13T21:48:42.238Z,100.00
2022-10-13T21:51:23.296Z,100.00
2022-10-13T21:53:52.408Z,100.00
2022-10-13T21:56:19.186Z,100.00
2022-10-13T21:58:46.145Z,100.00
2022-10-13T22:01:12.822Z,100.00
2022-10-13T22:03:41.100Z,100.00
2022-10-13T22:06:14.621Z,100.00
2022-10-13T22:08:46.413Z,100.00
2022-10-13T22:11:13.491Z,100.00
2022-10-13T22:13:40.034Z,100.00
2022-10-13T22:16:15.578Z,100.00
2022-10-13T22:18:42.829Z,100.00
2022-10-13T22:21:13.705Z,100.00
2022-10-13T22:23:40.195Z,100.00
2022-10-13T22:26:08.204Z,100.00
2022-10-13T22:28:37.230Z,100.00
2022-10-13T22:31:12.201Z,100.00
2022-10-13T22:33:39.759Z,100.00
2022-10-13T22:36:17.382Z,100.00
2022-10-13T22:38:48.614Z,100.00
2022-10-13T22:41:16.743Z,100.00
2022-10-13T22:43:44.440Z,100.00
2022-10-13T22:46:15.947Z,100.00
2022-10-13T22:48:42.885Z,100.00
2022-10-13T22:51:10.472Z,100.00
2022-10-13T22:53:37.483Z,100.00
2022-10-13T22:56:09.261Z,100.00
2022-10-13T22:58:36.143Z,100.00
2022-10-13T23:01:11.460Z,100.00
2022-10-13T23:03:38.800Z,100.00
2022-10-13T23:06:06.714Z,100.00
2022-10-13T23:08:34.023Z,100.00
2022-10-13T23:11:00.455Z,100.00
2022-10-13T23:13:26.953Z,100.00
2022-10-13T23:15:53.378Z,100.00
2022-10-13T23:18:19.772Z,100.00
2022-10-13T23:20:46.224Z,100.00
2022-10-13T23:23:12.620Z,100.00
2022-10-13T23:25:39.014Z,100.00
2022-10-13T23:28:05.436Z,100.00
2022-10-13T23:30:31.884Z,100.00
2022-10-13T23:32:58.336Z,100.00
2022-10-13T23:35:24.897Z,100.00
2022-10-13T23:37:54.197Z,100.00
2022-10-13T23:40:20.784Z,100.00
2022-10-13T23:42:47.672Z,100.00
2022-10-13T23:45:14.307Z,100.00
2022-10-13T23:47:40.723Z,100.00
2022-10-13T23:50:07.379Z,100.00
2022-10-13T23:52:33.810Z,100.00
2022-10-13T23:55:00.309Z,100.00
2022-10-13T23:57:26.706Z,100.00
2022-10-13T23:59:53.113Z,100.00
